sensor_id;sensor_type;location;lat;lon;timestamp;pressure;altitude;pressure_sealevel;temperature;humidity
22550;BME280;11441;57.164;-2.120;2023-02-20T00:02:18;99887.09;;;9.36;100.00
22550;BME280;11441;57.164;-2.120;2023-02-20T00:04:46;99882.03;;;9.38;100.00
22550;BME280;11441;57.164;-2.120;2023-02-20T00:07:13;99887.41;;;9.31;100.00
22550;BME280;11441;57.164;-2.120;2023-02-20T00:09:39;99883.03;;;9.27;100.00
22550;BME280;11441;57.164;-2.120;2023-02-20T00:12:06;99879.09;;;9.28;100.00
22550;BME280;11441;57.164;-2.120;2023-02-20T00:14:33;99877.66;;;9.34;100.00
22550;BME280;11441;57.164;-2.120;2023-02-20T00:17:01;99874.84;;;9.30;100.00
22550;BME280;11441;57.164;-2.120;2023-02-20T00:19:28;99880.09;;;9.39;100.00
22550;BME280;11441;57.164;-2.120;2023-02-20T00:21:55;99880.09;;;9.39;100.00
22550;BME280;11441;57.164;-2.120;2023-02-20T00:24:21;99885.00;;;9.30;100.00
22550;BME280;11441;57.164;-2.120;2023-02-20T00:27:07;99891.31;;;9.30;100.00
22550;BME280;11441;57.164;-2.120;2023-02-20T00:29:34;99883.88;;;9.31;100.00
22550;BME280;11441;57.164;-2.120;2023-02-20T00:32:01;99864.44;;;9.20;100.00
22550;BME280;11441;57.164;-2.120;2023-02-20T00:34:30;99882.09;;;9.19;100.00
22550;BME280;11441;57.164;-2.120;2023-02-20T00:36:57;99876.94;;;9.17;100.00
22550;BME280;11441;57.164;-2.120;2023-02-20T00:39:24;99891.09;;;9.19;100.00
22550;BME280;11441;57.164;-2.120;2023-02-20T00:41:51;99892.28;;;9.18;100.00
22550;BME280;11441;57.164;-2.120;2023-02-20T00:44:18;99898.81;;;9.10;100.00
22550;BME280;11441;57.164;-2.120;2023-02-20T00:46:45;99894.16;;;9.14;100.00
22550;BME280;11441;57.164;-2.120;2023-02-20T00:49:12;99888.19;;;9.09;100.00
22550;BME280;11441;57.164;-2.120;2023-02-20T00:51:46;99889.19;;;9.20;100.00
22550;BME280;11441;57.164;-2.120;2023-02-20T00:54:13;99894.59;;;9.16;100.00
22550;BME280;11441;57.164;-2.120;2023-02-20T00:56:40;99885.13;;;9.14;100.00
22550;BME280;11441;57.164;-2.120;2023-02-20T00:59:07;99892.59;;;9.13;100.00
22550;BME280;11441;57.164;-2.120;2023-02-20T01:01:34;99876.34;;;9.04;100.00
22550;BME280;11441;57.164;-2.120;2023-02-20T01:04:01;99873.94;;;9.03;100.00
22550;BME280;11441;57.164;-2.120;2023-02-20T01:06:27;99872.56;;;9.13;100.00
22550;BME280;11441;57.164;-2.120;2023-02-20T01:08:54;99873.00;;;9.15;100.00
22550;BME280;11441;57.164;-2.120;2023-02-20T01:11:21;99865.47;;;9.12;100.00
22550;BME280;11441;57.164;-2.120;2023-02-20T01:13:48;99869.38;;;9.11;100.00
22550;BME280;11441;57.164;-2.120;2023-02-20T01:16:15;99878.38;;;9.08;100.00
22550;BME280;11441;57.164;-2.120;2023-02-20T01:18:42;99870.59;;;9.13;100.00
22550;BME280;11441;57.164;-2.120;2023-02-20T01:21:09;99868.47;;;9.26;100.00
22550;BME280;11441;57.164;-2.120;2023-02-20T01:23:35;99875.81;;;9.41;100.00
22550;BME280;11441;57.164;-2.120;2023-02-20T01:26:02;99885.19;;;9.63;100.00
22550;BME280;11441;57.164;-2.120;2023-02-20T01:28:29;99871.50;;;9.94;100.00
22550;BME280;11441;57.164;-2.120;2023-02-20T01:30:56;99879.91;;;10.05;100.00
22550;BME280;11441;57.164;-2.120;2023-02-20T01:33:23;99878.53;;;10.18;100.00
22550;BME280;11441;57.164;-2.120;2023-02-20T01:35:50;99874.69;;;10.23;100.00
22550;BME280;11441;57.164;-2.120;2023-02-20T01:38:20;99859.91;;;10.34;100.00
22550;BME280;11441;57.164;-2.120;2023-02-20T01:40:48;99862.97;;;10.29;100.00
22550;BME280;11441;57.164;-2.120;2023-02-20T01:43:15;99870.16;;;10.37;100.00
22550;BME280;11441;57.164;-2.120;2023-02-20T01:45:42;99876.13;;;10.43;100.00
22550;BME280;11441;57.164;-2.120;2023-02-20T01:48:22;99860.09;;;10.49;100.00
22550;BME280;11441;57.164;-2.120;2023-02-20T01:53:54;99862.09;;;10.52;100.00
22550;BME280;11441;57.164;-2.120;2023-02-20T01:56:20;99844.31;;;10.46;100.00
22550;BME280;11441;57.164;-2.120;2023-02-20T01:58:48;99840.47;;;10.50;100.00
22550;BME280;11441;57.164;-2.120;2023-02-20T02:01:16;99832.66;;;10.56;100.00
22550;BME280;11441;57.164;-2.120;2023-02-20T02:03:46;99835.69;;;10.47;100.00
22550;BME280;11441;57.164;-2.120;2023-02-20T02:06:15;99849.09;;;10.49;100.00
22550;BME280;11441;57.164;-2.120;2023-02-20T02:08:43;99837.75;;;10.54;100.00
22550;BME280;11441;57.164;-2.120;2023-02-20T02:11:29;99843.59;;;10.49;100.00
22550;BME280;11441;57.164;-2.120;2023-02-20T02:14:13;99843.66;;;10.56;100.00
22550;BME280;11441;57.164;-2.120;2023-02-20T02:38:03;99866.38;;;10.83;100.00
22550;BME280;11441;57.164;-2.120;2023-02-20T02:41:07;99872.03;;;10.94;100.00
22550;BME280;11441;57.164;-2.120;2023-02-20T02:47:23;99857.38;;;10.86;100.00
22550;BME280;11441;57.164;-2.120;2023-02-20T02:50:05;99854.97;;;10.85;100.00
22550;BME280;11441;57.164;-2.120;2023-02-20T02:52:35;99857.41;;;10.90;100.00
22550;BME280;11441;57.164;-2.120;2023-02-20T02:55:22;99857.41;;;10.90;100.00
22550;BME280;11441;57.164;-2.120;2023-02-20T02:57:49;99863.34;;;10.92;100.00
22550;BME280;11441;57.164;-2.120;2023-02-20T03:11:11;99837.38;;;10.93;100.00
22550;BME280;11441;57.164;-2.120;2023-02-20T03:13:49;99836.66;;;11.00;100.00
22550;BME280;11441;57.164;-2.120;2023-02-20T03:19:27;99858.69;;;11.00;100.00
22550;BME280;11441;57.164;-2.120;2023-02-20T03:21:56;99844.88;;;10.96;100.00
22550;BME280;11441;57.164;-2.120;2023-02-20T03:24:42;99853.22;;;11.03;100.00
22550;BME280;11441;57.164;-2.120;2023-02-20T03:27:46;99866.19;;;10.99;100.00
22550;BME280;11441;57.164;-2.120;2023-02-20T03:30:29;99846.44;;;10.97;100.00
22550;BME280;11441;57.164;-2.120;2023-02-20T03:33:17;99851.97;;;10.97;100.00
22550;BME280;11441;57.164;-2.120;2023-02-20T03:36:08;99847.63;;;10.96;100.00
22550;BME280;11441;57.164;-2.120;2023-02-20T03:39:00;99842.06;;;11.33;100.00
22550;BME280;11441;57.164;-2.120;2023-02-20T03:41:48;99835.16;;;11.58;100.00
22550;BME280;11441;57.164;-2.120;2023-02-20T03:44:38;99846.75;;;11.78;100.00
22550;BME280;11441;57.164;-2.120;2023-02-20T03:47:07;99837.75;;;11.84;100.00
22550;BME280;11441;57.164;-2.120;2023-02-20T03:49:39;99847.56;;;11.82;100.00
22550;BME280;11441;57.164;-2.120;2023-02-20T03:52:10;99834.19;;;11.87;100.00
22550;BME280;11441;57.164;-2.120;2023-02-20T03:54:39;99843.75;;;12.01;100.00
22550;BME280;11441;57.164;-2.120;2023-02-20T03:58:08;99841.88;;;12.12;100.00
22550;BME280;11441;57.164;-2.120;2023-02-20T04:00:19;99828.84;;;12.09;100.00
22550;BME280;11441;57.164;-2.120;2023-02-20T04:02:53;99849.31;;;12.04;100.00
22550;BME280;11441;57.164;-2.120;2023-02-20T04:05:29;99839.13;;;12.12;100.00
22550;BME280;11441;57.164;-2.120;2023-02-20T04:08:22;99844.59;;;12.08;100.00
22550;BME280;11441;57.164;-2.120;2023-02-20T04:10:56;99852.47;;;12.10;100.00
22550;BME280;11441;57.164;-2.120;2023-02-20T04:13:26;99858.81;;;12.11;100.00
22550;BME280;11441;57.164;-2.120;2023-02-20T04:15:59;99871.44;;;12.15;100.00
22550;BME280;11441;57.164;-2.120;2023-02-20T04:18:27;99849.72;;;12.10;100.00
22550;BME280;11441;57.164;-2.120;2023-02-20T04:20:58;99872.63;;;12.14;100.00
22550;BME280;11441;57.164;-2.120;2023-02-20T04:23:35;99864.69;;;12.02;100.00
22550;BME280;11441;57.164;-2.120;2023-02-20T04:26:07;99880.03;;;12.03;100.00
22550;BME280;11441;57.164;-2.120;2023-02-20T04:28:40;99858.34;;;12.01;100.00
22550;BME280;11441;57.164;-2.120;2023-02-20T04:31:10;99881.16;;;11.95;100.00
22550;BME280;11441;57.164;-2.120;2023-02-20T04:33:38;99875.72;;;12.02;100.00
22550;BME280;11441;57.164;-2.120;2023-02-20T04:36:11;99870.22;;;12.05;100.00
22550;BME280;11441;57.164;-2.120;2023-02-20T04:38:39;99874.13;;;12.01;100.00
22550;BME280;11441;57.164;-2.120;2023-02-20T04:41:10;99885.19;;;12.04;100.00
22550;BME280;11441;57.164;-2.120;2023-02-20T04:43:39;99890.97;;;11.88;100.00
22550;BME280;11441;57.164;-2.120;2023-02-20T04:46:06;99883.13;;;11.94;100.00
22550;BME280;11441;57.164;-2.120;2023-02-20T04:48:37;99885.91;;;11.98;100.00
22550;BME280;11441;57.164;-2.120;2023-02-20T04:51:04;99878.00;;;11.93;100.00
22550;BME280;11441;57.164;-2.120;2023-02-20T04:53:32;99891.84;;;12.00;100.00
22550;BME280;11441;57.164;-2.120;2023-02-20T04:55:59;99885.97;;;12.05;100.00
22550;BME280;11441;57.164;-2.120;2023-02-20T04:58:26;99898.19;;;12.04;100.00
22550;BME280;11441;57.164;-2.120;2023-02-20T05:00:59;99902.13;;;12.06;100.00
22550;BME280;11441;57.164;-2.120;2023-02-20T05:03:26;99902.53;;;12.05;100.00
22550;BME280;11441;57.164;-2.120;2023-02-20T05:05:53;99896.69;;;12.17;100.00
22550;BME280;11441;57.164;-2.120;2023-02-20T05:08:19;99900.19;;;12.07;100.00
22550;BME280;11441;57.164;-2.120;2023-02-20T05:10:46;99906.13;;;12.13;100.00
22550;BME280;11441;57.164;-2.120;2023-02-20T05:13:13;99900.66;;;12.20;100.00
22550;BME280;11441;57.164;-2.120;2023-02-20T05:15:40;99915.66;;;12.26;100.00
22550;BME280;11441;57.164;-2.120;2023-02-20T05:18:06;99924.75;;;12.23;100.00
22550;BME280;11441;57.164;-2.120;2023-02-20T05:20:33;99907.28;;;12.08;100.00
22550;BME280;11441;57.164;-2.120;2023-02-20T05:23:18;99916.84;;;12.21;100.00
22550;BME280;11441;57.164;-2.120;2023-02-20T05:26:11;99912.13;;;12.29;100.00
22550;BME280;11441;57.164;-2.120;2023-02-20T05:28:39;99914.81;;;12.11;100.00
22550;BME280;11441;57.164;-2.120;2023-02-20T05:31:05;99913.66;;;12.16;100.00
22550;BME280;11441;57.164;-2.120;2023-02-20T05:33:33;99919.25;;;12.26;100.00
22550;BME280;11441;57.164;-2.120;2023-02-20T05:35:59;99916.84;;;12.25;100.00
22550;BME280;11441;57.164;-2.120;2023-02-20T05:38:26;99916.06;;;12.24;100.00
22550;BME280;11441;57.164;-2.120;2023-02-20T05:40:53;99924.75;;;12.26;100.00
22550;BME280;11441;57.164;-2.120;2023-02-20T05:43:20;99940.13;;;12.27;100.00
22550;BME280;11441;57.164;-2.120;2023-02-20T05:45:47;99927.91;;;12.29;100.00
22550;BME280;11441;57.164;-2.120;2023-02-20T05:48:14;99931.88;;;12.35;100.00
22550;BME280;11441;57.164;-2.120;2023-02-20T05:50:41;99932.63;;;12.21;100.00
22550;BME280;11441;57.164;-2.120;2023-02-20T05:53:16;99923.53;;;12.24;100.00
22550;BME280;11441;57.164;-2.120;2023-02-20T05:55:43;99942.16;;;12.34;100.00
22550;BME280;11441;57.164;-2.120;2023-02-20T05:58:09;99945.25;;;12.25;100.00
22550;BME280;11441;57.164;-2.120;2023-02-20T06:00:36;99950.03;;;12.32;100.00
22550;BME280;11441;57.164;-2.120;2023-02-20T06:03:06;99959.53;;;12.38;100.00
22550;BME280;11441;57.164;-2.120;2023-02-20T06:05:33;99959.06;;;12.25;100.00
22550;BME280;11441;57.164;-2.120;2023-02-20T06:08:00;99995.50;;;11.94;100.00
22550;BME280;11441;57.164;-2.120;2023-02-20T06:10:27;99996.28;;;11.53;100.00
22550;BME280;11441;57.164;-2.120;2023-02-20T06:13:12;99997.09;;;11.23;100.00
22550;BME280;11441;57.164;-2.120;2023-02-20T06:15:39;99998.09;;;11.04;100.00
22550;BME280;11441;57.164;-2.120;2023-02-20T06:18:06;99986.38;;;10.81;100.00
22550;BME280;11441;57.164;-2.120;2023-02-20T06:20:32;99991.84;;;10.77;100.00
22550;BME280;11441;57.164;-2.120;2023-02-20T06:22:59;100000.50;;;10.49;100.00
22550;BME280;11441;57.164;-2.120;2023-02-20T06:25:26;100020.34;;;10.35;100.00
22550;BME280;11441;57.164;-2.120;2023-02-20T06:27:53;100014.25;;;10.26;100.00
22550;BME280;11441;57.164;-2.120;2023-02-20T06:30:20;100009.56;;;10.26;100.00
22550;BME280;11441;57.164;-2.120;2023-02-20T06:32:46;100006.34;;;10.21;100.00
22550;BME280;11441;57.164;-2.120;2023-02-20T06:35:13;100001.38;;;10.30;100.00
22550;BME280;11441;57.164;-2.120;2023-02-20T06:37:41;100004.84;;;10.27;100.00
22550;BME280;11441;57.164;-2.120;2023-02-20T06:40:08;100016.59;;;10.24;100.00
22550;BME280;11441;57.164;-2.120;2023-02-20T06:42:35;100023.03;;;10.08;100.00
22550;BME280;11441;57.164;-2.120;2023-02-20T06:45:02;100019.28;;;10.20;100.00
22550;BME280;11441;57.164;-2.120;2023-02-20T06:47:29;100012.84;;;10.09;100.00
22550;BME280;11441;57.164;-2.120;2023-02-20T06:49:56;100030.19;;;10.13;100.00
22550;BME280;11441;57.164;-2.120;2023-02-20T06:52:23;100036.66;;;10.01;100.00
22550;BME280;11441;57.164;-2.120;2023-02-20T06:54:50;100024.63;;;10.09;100.00
22550;BME280;11441;57.164;-2.120;2023-02-20T06:57:18;100026.34;;;10.17;100.00
22550;BME280;11441;57.164;-2.120;2023-02-20T06:59:45;100035.75;;;10.16;100.00
22550;BME280;11441;57.164;-2.120;2023-02-20T07:02:16;100035.69;;;10.13;100.00
22550;BME280;11441;57.164;-2.120;2023-02-20T07:04:47;100045.28;;;10.23;100.00
22550;BME280;11441;57.164;-2.120;2023-02-20T07:07:14;100041.03;;;10.02;100.00
22550;BME280;11441;57.164;-2.120;2023-02-20T07:09:41;100047.53;;;10.17;100.00
22550;BME280;11441;57.164;-2.120;2023-02-20T07:12:10;100054.28;;;10.19;100.00
22550;BME280;11441;57.164;-2.120;2023-02-20T07:14:37;100069.97;;;9.96;100.00
22550;BME280;11441;57.164;-2.120;2023-02-20T07:17:04;100070.19;;;10.07;100.00
22550;BME280;11441;57.164;-2.120;2023-02-20T07:19:30;100077.16;;;10.00;100.00
22550;BME280;11441;57.164;-2.120;2023-02-20T07:22:16;100077.09;;;9.97;100.00
22550;BME280;11441;57.164;-2.120;2023-02-20T07:24:43;100070.84;;;10.00;100.00
22550;BME280;11441;57.164;-2.120;2023-02-20T07:27:28;100084.25;;;10.02;100.00
22550;BME280;11441;57.164;-2.120;2023-02-20T07:29:55;100060.53;;;9.93;100.00
22550;BME280;11441;57.164;-2.120;2023-02-20T07:32:22;100073.91;;;9.95;100.00
22550;BME280;11441;57.164;-2.120;2023-02-20T07:34:49;100094.31;;;9.94;100.00
22550;BME280;11441;57.164;-2.120;2023-02-20T07:37:30;100099.09;;;10.20;100.00
22550;BME280;11441;57.164;-2.120;2023-02-20T07:39:57;100096.66;;;10.15;100.00
22550;BME280;11441;57.164;-2.120;2023-02-20T07:42:24;100105.03;;;10.22;100.00
22550;BME280;11441;57.164;-2.120;2023-02-20T07:44:59;100104.97;;;10.18;100.00
22550;BME280;11441;57.164;-2.120;2023-02-20T07:47:44;100114.75;;;10.16;100.00
22550;BME280;11441;57.164;-2.120;2023-02-20T07:50:13;100114.22;;;10.30;100.00
22550;BME280;11441;57.164;-2.120;2023-02-20T07:52:59;100120.88;;;10.29;100.00
22550;BME280;11441;57.164;-2.120;2023-02-20T07:55:25;100119.50;;;10.38;100.00
22550;BME280;11441;57.164;-2.120;2023-02-20T07:57:52;100128.28;;;10.25;100.00
22550;BME280;11441;57.164;-2.120;2023-02-20T08:00:25;100137.47;;;10.32;100.00
22550;BME280;11441;57.164;-2.120;2023-02-20T08:02:52;100138.50;;;10.24;100.00
22550;BME280;11441;57.164;-2.120;2023-02-20T08:05:19;100149.56;;;10.28;100.00
22550;BME280;11441;57.164;-2.120;2023-02-20T08:07:48;100152.97;;;10.41;100.00
22550;BME280;11441;57.164;-2.120;2023-02-20T08:10:17;100156.63;;;10.48;100.00
22550;BME280;11441;57.164;-2.120;2023-02-20T08:13:03;100163.28;;;10.24;100.00
22550;BME280;11441;57.164;-2.120;2023-02-20T08:15:30;100164.06;;;10.25;100.00
22550;BME280;11441;57.164;-2.120;2023-02-20T08:17:57;100167.78;;;10.13;100.00
22550;BME280;11441;57.164;-2.120;2023-02-20T08:20:24;100179.56;;;10.13;100.00
22550;BME280;11441;57.164;-2.120;2023-02-20T08:22:50;100185.81;;;10.10;100.00
22550;BME280;11441;57.164;-2.120;2023-02-20T08:25:17;100194.00;;;10.07;100.00
22550;BME280;11441;57.164;-2.120;2023-02-20T08:27:47;100204.69;;;10.12;100.00
22550;BME280;11441;57.164;-2.120;2023-02-20T08:30:24;100194.56;;;10.16;100.00
22550;BME280;11441;57.164;-2.120;2023-02-20T08:32:52;100198.16;;;10.20;100.00
22550;BME280;11441;57.164;-2.120;2023-02-20T08:35:20;100215.84;;;9.99;100.00
22550;BME280;11441;57.164;-2.120;2023-02-20T08:37:50;100201.16;;;9.92;100.00
22550;BME280;11441;57.164;-2.120;2023-02-20T08:40:35;100207.97;;;9.98;100.00
22550;BME280;11441;57.164;-2.120;2023-02-20T08:43:02;100209.56;;;9.99;100.00
22550;BME280;11441;57.164;-2.120;2023-02-20T08:45:29;100207.75;;;9.68;100.00
22550;BME280;11441;57.164;-2.120;2023-02-20T08:47:56;100211.16;;;9.80;100.00
22550;BME280;11441;57.164;-2.120;2023-02-20T08:50:27;100214.34;;;9.82;100.00
22550;BME280;11441;57.164;-2.120;2023-02-20T08:52:54;100227.75;;;9.84;100.00
22550;BME280;11441;57.164;-2.120;2023-02-20T08:55:21;100226.28;;;9.90;100.00
22550;BME280;11441;57.164;-2.120;2023-02-20T08:57:47;100224.47;;;9.78;100.00
22550;BME280;11441;57.164;-2.120;2023-02-20T09:00:15;100234.97;;;9.92;100.00
22550;BME280;11441;57.164;-2.120;2023-02-20T09:02:43;100232.81;;;10.02;100.00
22550;BME280;11441;57.164;-2.120;2023-02-20T09:05:12;100236.13;;;10.11;100.00
22550;BME280;11441;57.164;-2.120;2023-02-20T09:07:39;100221.97;;;9.89;100.00
22550;BME280;11441;57.164;-2.120;2023-02-20T09:10:06;100236.28;;;9.98;100.00
22550;BME280;11441;57.164;-2.120;2023-02-20T09:12:35;100250.47;;;10.00;100.00
22550;BME280;11441;57.164;-2.120;2023-02-20T09:15:02;100244.47;;;9.95;100.00
22550;BME280;11441;57.164;-2.120;2023-02-20T09:17:29;100247.16;;;9.91;100.00
22550;BME280;11441;57.164;-2.120;2023-02-20T09:19:55;100250.75;;;9.95;100.00
22550;BME280;11441;57.164;-2.120;2023-02-20T09:22:24;100252.13;;;9.86;100.00
22550;BME280;11441;57.164;-2.120;2023-02-20T09:24:52;100250.81;;;9.99;100.00
22550;BME280;11441;57.164;-2.120;2023-02-20T09:27:19;100256.75;;;10.01;100.00
22550;BME280;11441;57.164;-2.120;2023-02-20T09:29:46;100267.34;;;9.99;100.00
22550;BME280;11441;57.164;-2.120;2023-02-20T09:32:31;100264.72;;;10.06;100.00
22550;BME280;11441;57.164;-2.120;2023-02-20T09:34:58;100269.28;;;9.98;100.00
22550;BME280;11441;57.164;-2.120;2023-02-20T09:37:44;100260.47;;;10.09;100.00
22550;BME280;11441;57.164;-2.120;2023-02-20T09:40:13;100260.28;;;9.82;100.00
22550;BME280;11441;57.164;-2.120;2023-02-20T09:45:51;100277.47;;;9.95;100.00
22550;BME280;11441;57.164;-2.120;2023-02-20T09:51:50;100280.31;;;10.18;100.00
22550;BME280;11441;57.164;-2.120;2023-02-20T09:54:43;100287.41;;;10.19;100.00
22550;BME280;11441;57.164;-2.120;2023-02-20T09:57:16;100279.50;;;10.17;100.00
22550;BME280;11441;57.164;-2.120;2023-02-20T09:59:57;100290.09;;;10.15;100.00
22550;BME280;11441;57.164;-2.120;2023-02-20T10:02:52;100294.28;;;10.09;100.00
22550;BME280;11441;57.164;-2.120;2023-02-20T10:05:24;100287.31;;;9.96;100.00
22550;BME280;11441;57.164;-2.120;2023-02-20T10:07:51;100286.50;;;9.95;100.00
22550;BME280;11441;57.164;-2.120;2023-02-20T10:10:47;100298.91;;;10.05;100.00
22550;BME280;11441;57.164;-2.120;2023-02-20T10:16:15;100289.19;;;9.92;100.00
22550;BME280;11441;57.164;-2.120;2023-02-20T10:21:43;100300.56;;;9.90;100.00
22550;BME280;11441;57.164;-2.120;2023-02-20T10:27:21;100300.41;;;10.03;100.00
22550;BME280;11441;57.164;-2.120;2023-02-20T10:29:50;100316.72;;;10.31;100.00
22550;BME280;11441;57.164;-2.120;2023-02-20T10:32:22;100326.78;;;10.23;100.00
22550;BME280;11441;57.164;-2.120;2023-02-20T10:34:57;100333.34;;;10.34;100.00
22550;BME280;11441;57.164;-2.120;2023-02-20T10:37:33;100328.78;;;10.42;100.00
22550;BME280;11441;57.164;-2.120;2023-02-20T10:40:26;100331.75;;;10.53;100.00
22550;BME280;11441;57.164;-2.120;2023-02-20T10:43:27;100342.31;;;10.70;100.00
22550;BME280;11441;57.164;-2.120;2023-02-20T10:48:53;100346.72;;;10.75;100.00
22550;BME280;11441;57.164;-2.120;2023-02-20T10:51:29;100352.44;;;10.86;100.00
22550;BME280;11441;57.164;-2.120;2023-02-20T10:54:05;100353.31;;;10.70;100.00
22550;BME280;11441;57.164;-2.120;2023-02-20T10:59:24;100363.19;;;10.71;100.00
22550;BME280;11441;57.164;-2.120;2023-02-20T11:01:57;100368.56;;;10.64;100.00
22550;BME280;11441;57.164;-2.120;2023-02-20T11:04:31;100357.56;;;10.64;100.00
22550;BME280;11441;57.164;-2.120;2023-02-20T11:07:02;100363.63;;;10.54;100.00
22550;BME280;11441;57.164;-2.120;2023-02-20T11:09:30;100364.94;;;10.41;100.00
22550;BME280;11441;57.164;-2.120;2023-02-20T11:11:57;100356.53;;;10.33;100.00
22550;BME280;11441;57.164;-2.120;2023-02-20T11:17:09;100353.25;;;10.28;100.00
22550;BME280;11441;57.164;-2.120;2023-02-20T11:19:51;100342.09;;;10.21;100.00
22550;BME280;11441;57.164;-2.120;2023-02-20T11:25:27;100340.91;;;10.22;100.00
22550;BME280;11441;57.164;-2.120;2023-02-20T11:28:18;100346.50;;;10.25;100.00
22550;BME280;11441;57.164;-2.120;2023-02-20T11:30:49;100354.25;;;10.19;100.00
22550;BME280;11441;57.164;-2.120;2023-02-20T11:33:24;100347.50;;;10.33;100.00
22550;BME280;11441;57.164;-2.120;2023-02-20T11:36:09;100346.84;;;10.24;100.00
22550;BME280;11441;57.164;-2.120;2023-02-20T11:38:38;100340.28;;;10.28;100.00
22550;BME280;11441;57.164;-2.120;2023-02-20T11:44:19;100341.13;;;10.13;100.00
22550;BME280;11441;57.164;-2.120;2023-02-20T11:46:47;100332.63;;;10.37;100.00
22550;BME280;11441;57.164;-2.120;2023-02-20T11:49:25;100344.44;;;10.22;100.00
22550;BME280;11441;57.164;-2.120;2023-02-20T11:52:14;100341.22;;;10.36;100.00
22550;BME280;11441;57.164;-2.120;2023-02-20T11:54:41;100339.00;;;10.42;100.00
22550;BME280;11441;57.164;-2.120;2023-02-20T11:57:28;100336.06;;;10.15;100.00
22550;BME280;11441;57.164;-2.120;2023-02-20T12:00:14;100330.47;;;10.47;100.00
22550;BME280;11441;57.164;-2.120;2023-02-20T12:03:11;100346.75;;;10.36;100.00
22550;BME280;11441;57.164;-2.120;2023-02-20T12:05:45;100328.13;;;10.29;100.00
22550;BME280;11441;57.164;-2.120;2023-02-20T12:10:47;100328.56;;;10.51;100.00
22550;BME280;11441;57.164;-2.120;2023-02-20T12:13:17;100337.06;;;10.85;100.00
22550;BME280;11441;57.164;-2.120;2023-02-20T12:15:50;100333.75;;;10.75;100.00
22550;BME280;11441;57.164;-2.120;2023-02-20T12:18:33;100347.47;;;10.95;100.00
22550;BME280;11441;57.164;-2.120;2023-02-20T12:21:20;100342.97;;;11.06;100.00
22550;BME280;11441;57.164;-2.120;2023-02-20T12:24:12;100354.25;;;11.21;100.00
22550;BME280;11441;57.164;-2.120;2023-02-20T12:26:54;100348.22;;;11.38;100.00
22550;BME280;11441;57.164;-2.120;2023-02-20T12:46:17;100381.84;;;11.47;100.00
22550;BME280;11441;57.164;-2.120;2023-02-20T12:51:32;100404.09;;;11.35;100.00
22550;BME280;11441;57.164;-2.120;2023-02-20T12:56:52;100393.97;;;11.66;100.00
22550;BME280;11441;57.164;-2.120;2023-02-20T13:02:21;100397.66;;;11.50;100.00
22550;BME280;11441;57.164;-2.120;2023-02-20T13:05:10;100402.88;;;11.56;100.00
22550;BME280;11441;57.164;-2.120;2023-02-20T13:07:44;100385.16;;;11.57;100.00
22550;BME280;11441;57.164;-2.120;2023-02-20T13:10:16;100386.59;;;11.47;100.00
22550;BME280;11441;57.164;-2.120;2023-02-20T13:12:48;100399.56;;;11.69;100.00
22550;BME280;11441;57.164;-2.120;2023-02-20T13:15:42;100389.81;;;11.52;100.00
22550;BME280;11441;57.164;-2.120;2023-02-20T13:20:50;100397.00;;;11.57;100.00
22550;BME280;11441;57.164;-2.120;2023-02-20T13:25:48;100419.19;;;11.41;100.00
22550;BME280;11441;57.164;-2.120;2023-02-20T13:28:39;100397.97;;;11.45;100.00
22550;BME280;11441;57.164;-2.120;2023-02-20T13:33:45;100406.06;;;11.35;100.00
22550;BME280;11441;57.164;-2.120;2023-02-20T13:44:42;100442.72;;;11.58;100.00
22550;BME280;11441;57.164;-2.120;2023-02-20T13:49:54;100448.03;;;11.24;100.00
22550;BME280;11441;57.164;-2.120;2023-02-20T13:58:00;100455.09;;;11.68;100.00
22550;BME280;11441;57.164;-2.120;2023-02-20T14:03:27;100450.66;;;11.40;100.00
22550;BME280;11441;57.164;-2.120;2023-02-20T14:06:15;100461.88;;;11.51;100.00
22550;BME280;11441;57.164;-2.120;2023-02-20T14:08:45;100449.94;;;11.20;100.00
22550;BME280;11441;57.164;-2.120;2023-02-20T14:11:30;100463.53;;;11.32;100.00
22550;BME280;11441;57.164;-2.120;2023-02-20T14:13:59;100456.00;;;11.52;100.00
22550;BME280;11441;57.164;-2.120;2023-02-20T14:16:30;100448.81;;;11.25;100.00
22550;BME280;11441;57.164;-2.120;2023-02-20T14:21:39;100454.31;;;11.44;100.00
22550;BME280;11441;57.164;-2.120;2023-02-20T14:24:27;100457.78;;;11.41;100.00
22550;BME280;11441;57.164;-2.120;2023-02-20T14:26:54;100452.81;;;11.27;100.00
22550;BME280;11441;57.164;-2.120;2023-02-20T14:29:28;100454.50;;;11.12;100.00
22550;BME280;11441;57.164;-2.120;2023-02-20T14:31:57;100443.88;;;11.34;100.00
22550;BME280;11441;57.164;-2.120;2023-02-20T14:37:31;100443.16;;;11.18;100.00
22550;BME280;11441;57.164;-2.120;2023-02-20T14:40:38;100450.84;;;11.28;100.00
22550;BME280;11441;57.164;-2.120;2023-02-20T14:43:15;100451.06;;;11.19;100.00
22550;BME280;11441;57.164;-2.120;2023-02-20T14:45:43;100458.63;;;11.22;100.00
22550;BME280;11441;57.164;-2.120;2023-02-20T14:48:32;100466.53;;;11.24;100.00
22550;BME280;11441;57.164;-2.120;2023-02-20T14:51:17;100466.81;;;11.19;100.00
22550;BME280;11441;57.164;-2.120;2023-02-20T14:56:42;100480.34;;;11.47;100.00
22550;BME280;11441;57.164;-2.120;2023-02-20T14:59:36;100488.59;;;11.24;100.00
22550;BME280;11441;57.164;-2.120;2023-02-20T15:05:27;100494.47;;;11.03;100.00
22550;BME280;11441;57.164;-2.120;2023-02-20T15:08:19;100500.19;;;11.13;100.00
22550;BME280;11441;57.164;-2.120;2023-02-20T15:10:49;100493.38;;;11.27;100.00
22550;BME280;11441;57.164;-2.120;2023-02-20T15:13:24;100503.09;;;11.01;97.60
22550;BME280;11441;57.164;-2.120;2023-02-20T15:16:31;100504.69;;;10.83;100.00
22550;BME280;11441;57.164;-2.120;2023-02-20T15:18:58;100502.97;;;10.94;100.00
22550;BME280;11441;57.164;-2.120;2023-02-20T15:21:40;100511.72;;;11.19;100.00
22550;BME280;11441;57.164;-2.120;2023-02-20T15:24:40;100510.47;;;10.97;99.09